sensor_id;sensor_type;location;lat;lon;timestamp;P1;durP1;ratioP1;P2;durP2;ratioP2
54599;SDS011;40500;51.084;16.958;2023-04-25T00:00:42;2.40;;;1.00;;
54599;SDS011;40500;51.084;16.958;2023-04-25T00:03:12;1.10;;;0.70;;
54599;SDS011;40500;51.084;16.958;2023-04-25T00:05:44;1.70;;;0.70;;
54599;SDS011;40500;51.084;16.958;2023-04-25T00:08:15;0.70;;;0.70;;
54599;SDS011;40500;51.084;16.958;2023-04-25T00:10:46;0.80;;;0.70;;
54599;SDS011;40500;51.084;16.958;2023-04-25T00:13:17;0.60;;;0.60;;
54599;SDS011;40500;51.084;16.958;2023-04-25T00:15:48;0.70;;;0.70;;
54599;SDS011;40500;51.084;16.958;2023-04-25T00:18:19;0.60;;;0.60;;
54599;SDS011;40500;51.084;16.958;2023-04-25T00:20:49;0.90;;;0.70;;
54599;SDS011;40500;51.084;16.958;2023-04-25T00:23:20;0.60;;;0.60;;
54599;SDS011;40500;51.084;16.958;2023-04-25T00:25:51;1.40;;;0.60;;
54599;SDS011;40500;51.084;16.958;2023-04-25T00:28:22;0.80;;;0.80;;
54599;SDS011;40500;51.084;16.958;2023-04-25T00:30:52;1.20;;;1.10;;
54599;SDS011;40500;51.084;16.958;2023-04-25T00:33:23;2.40;;;0.80;;
54599;SDS011;40500;51.084;16.958;2023-04-25T00:35:53;0.90;;;0.90;;
54599;SDS011;40500;51.084;16.958;2023-04-25T00:38:24;0.80;;;0.80;;
54599;SDS011;40500;51.084;16.958;2023-04-25T00:40:55;1.40;;;0.90;;
54599;SDS011;40500;51.084;16.958;2023-04-25T00:43:26;1.00;;;0.80;;
54599;SDS011;40500;51.084;16.958;2023-04-25T00:45:58;0.80;;;0.80;;
54599;SDS011;40500;51.084;16.958;2023-04-25T00:48:29;1.00;;;0.80;;
54599;SDS011;40500;51.084;16.958;2023-04-25T00:51:00;1.10;;;1.00;;
54599;SDS011;40500;51.084;16.958;2023-04-25T00:53:30;3.20;;;1.10;;
54599;SDS011;40500;51.084;16.958;2023-04-25T00:56:01;1.40;;;1.30;;
54599;SDS011;40500;51.084;16.958;2023-04-25T00:58:31;1.50;;;1.20;;
54599;SDS011;40500;51.084;16.958;2023-04-25T01:01:02;1.90;;;1.60;;
54599;SDS011;40500;51.084;16.958;2023-04-25T01:03:34;2.10;;;1.60;;
54599;SDS011;40500;51.084;16.958;2023-04-25T01:06:09;2.40;;;1.90;;
54599;SDS011;40500;51.084;16.958;2023-04-25T01:08:40;3.60;;;2.30;;
54599;SDS011;40500;51.084;16.958;2023-04-25T01:11:11;2.10;;;1.60;;
54599;SDS011;40500;51.084;16.958;2023-04-25T01:13:41;2.80;;;1.70;;
54599;SDS011;40500;51.084;16.958;2023-04-25T01:16:12;1.90;;;1.50;;
54599;SDS011;40500;51.084;16.958;2023-04-25T01:18:43;2.30;;;2.00;;
54599;SDS011;40500;51.084;16.958;2023-04-25T01:21:15;3.00;;;2.00;;
54599;SDS011;40500;51.084;16.958;2023-04-25T01:23:47;1.70;;;1.60;;
54599;SDS011;40500;51.084;16.958;2023-04-25T01:26:19;2.70;;;2.00;;
54599;SDS011;40500;51.084;16.958;2023-04-25T01:28:50;1.50;;;1.40;;
54599;SDS011;40500;51.084;16.958;2023-04-25T01:31:20;3.20;;;1.80;;
54599;SDS011;40500;51.084;16.958;2023-04-25T01:33:51;2.20;;;1.60;;
54599;SDS011;40500;51.084;16.958;2023-04-25T01:36:21;2.10;;;1.60;;
54599;SDS011;40500;51.084;16.958;2023-04-25T01:38:52;1.60;;;1.50;;
54599;SDS011;40500;51.084;16.958;2023-04-25T01:41:23;3.70;;;2.20;;
54599;SDS011;40500;51.084;16.958;2023-04-25T01:43:54;2.10;;;1.60;;
54599;SDS011;40500;51.084;16.958;2023-04-25T01:46:25;2.10;;;1.60;;
54599;SDS011;40500;51.084;16.958;2023-04-25T01:48:56;1.70;;;1.50;;
54599;SDS011;40500;51.084;16.958;2023-04-25T01:51:26;1.70;;;1.60;;
54599;SDS011;40500;51.084;16.958;2023-04-25T01:53:57;1.90;;;1.70;;
54599;SDS011;40500;51.084;16.958;2023-04-25T01:56:31;2.50;;;2.00;;
54599;SDS011;40500;51.084;16.958;2023-04-25T01:59:05;1.70;;;1.60;;
54599;SDS011;40500;51.084;16.958;2023-04-25T02:01:50;2.00;;;1.80;;
54599;SDS011;40500;51.084;16.958;2023-04-25T02:04:23;1.70;;;1.50;;
54599;SDS011;40500;51.084;16.958;2023-04-25T02:06:55;2.00;;;1.80;;
54599;SDS011;40500;51.084;16.958;2023-04-25T02:09:33;2.80;;;2.10;;
54599;SDS011;40500;51.084;16.958;2023-04-25T02:12:07;1.80;;;1.30;;
54599;SDS011;40500;51.084;16.958;2023-04-25T02:17:41;1.30;;;1.20;;
54599;SDS011;40500;51.084;16.958;2023-04-25T02:20:13;2.50;;;2.20;;
54599;SDS011;40500;51.084;16.958;2023-04-25T02:22:44;2.30;;;1.80;;
54599;SDS011;40500;51.084;16.958;2023-04-25T02:25:15;2.80;;;2.00;;
54599;SDS011;40500;51.084;16.958;2023-04-25T02:27:47;2.30;;;2.10;;
54599;SDS011;40500;51.084;16.958;2023-04-25T02:30:19;2.30;;;2.10;;
54599;SDS011;40500;51.084;16.958;2023-04-25T02:32:49;2.30;;;1.90;;
54599;SDS011;40500;51.084;16.958;2023-04-25T02:35:20;2.30;;;2.10;;
54599;SDS011;40500;51.084;16.958;2023-04-25T02:37:54;3.60;;;2.60;;
54599;SDS011;40500;51.084;16.958;2023-04-25T02:40:24;2.50;;;2.30;;
54599;SDS011;40500;51.084;16.958;2023-04-25T02:42:55;2.60;;;2.40;;
54599;SDS011;40500;51.084;16.958;2023-04-25T02:45:26;3.70;;;3.30;;
54599;SDS011;40500;51.084;16.958;2023-04-25T02:47:57;3.90;;;2.90;;
54599;SDS011;40500;51.084;16.958;2023-04-25T02:50:27;5.20;;;2.80;;
54599;SDS011;40500;51.084;16.958;2023-04-25T02:52:58;2.80;;;2.20;;
54599;SDS011;40500;51.084;16.958;2023-04-25T02:55:34;4.40;;;2.80;;
54599;SDS011;40500;51.084;16.958;2023-04-25T02:58:04;2.60;;;2.40;;
54599;SDS011;40500;51.084;16.958;2023-04-25T03:00:44;2.80;;;2.50;;
54599;SDS011;40500;51.084;16.958;2023-04-25T03:03:15;4.40;;;3.20;;
54599;SDS011;40500;51.084;16.958;2023-04-25T03:05:50;3.60;;;2.00;;
54599;SDS011;40500;51.084;16.958;2023-04-25T03:11:00;2.10;;;1.80;;
54599;SDS011;40500;51.084;16.958;2023-04-25T03:13:31;2.20;;;2.00;;
54599;SDS011;40500;51.084;16.958;2023-04-25T03:16:01;3.80;;;2.30;;
54599;SDS011;40500;51.084;16.958;2023-04-25T03:18:32;2.80;;;2.50;;
54599;SDS011;40500;51.084;16.958;2023-04-25T03:21:02;2.40;;;2.20;;
54599;SDS011;40500;51.084;16.958;2023-04-25T03:23:33;3.90;;;2.40;;
54599;SDS011;40500;51.084;16.958;2023-04-25T03:26:03;3.30;;;2.50;;
54599;SDS011;40500;51.084;16.958;2023-04-25T03:28:34;2.30;;;2.10;;
54599;SDS011;40500;51.084;16.958;2023-04-25T03:31:04;2.30;;;2.00;;
54599;SDS011;40500;51.084;16.958;2023-04-25T03:33:35;3.90;;;2.60;;
54599;SDS011;40500;51.084;16.958;2023-04-25T03:36:06;2.60;;;2.30;;
54599;SDS011;40500;51.084;16.958;2023-04-25T03:38:38;2.90;;;2.30;;
54599;SDS011;40500;51.084;16.958;2023-04-25T03:41:09;3.50;;;2.50;;
54599;SDS011;40500;51.084;16.958;2023-04-25T03:43:44;3.70;;;2.40;;
54599;SDS011;40500;51.084;16.958;2023-04-25T03:46:16;3.70;;;2.90;;
54599;SDS011;40500;51.084;16.958;2023-04-25T03:48:47;2.50;;;2.30;;
54599;SDS011;40500;51.084;16.958;2023-04-25T03:51:28;5.20;;;3.20;;
54599;SDS011;40500;51.084;16.958;2023-04-25T03:53:59;2.90;;;2.70;;
54599;SDS011;40500;51.084;16.958;2023-04-25T03:56:31;3.10;;;2.30;;
54599;SDS011;40500;51.084;16.958;2023-04-25T03:59:09;3.80;;;2.90;;
54599;SDS011;40500;51.084;16.958;2023-04-25T04:01:40;3.60;;;2.90;;
54599;SDS011;40500;51.084;16.958;2023-04-25T04:04:11;3.70;;;3.30;;
54599;SDS011;40500;51.084;16.958;2023-04-25T04:06:42;5.90;;;2.90;;
54599;SDS011;40500;51.084;16.958;2023-04-25T04:09:18;2.50;;;2.30;;
54599;SDS011;40500;51.084;16.958;2023-04-25T04:11:49;3.80;;;2.80;;
54599;SDS011;40500;51.084;16.958;2023-04-25T04:14:19;3.30;;;2.70;;
54599;SDS011;40500;51.084;16.958;2023-04-25T04:16:51;3.50;;;3.10;;
54599;SDS011;40500;51.084;16.958;2023-04-25T04:19:23;3.20;;;2.90;;
54599;SDS011;40500;51.084;16.958;2023-04-25T04:22:04;3.50;;;2.60;;
54599;SDS011;40500;51.084;16.958;2023-04-25T04:24:35;4.70;;;3.50;;
54599;SDS011;40500;51.084;16.958;2023-04-25T04:27:07;3.70;;;3.30;;
54599;SDS011;40500;51.084;16.958;2023-04-25T04:29:58;4.10;;;3.10;;
54599;SDS011;40500;51.084;16.958;2023-04-25T04:32:34;5.50;;;3.30;;
54599;SDS011;40500;51.084;16.958;2023-04-25T04:35:06;5.20;;;3.40;;
54599;SDS011;40500;51.084;16.958;2023-04-25T04:37:39;4.90;;;3.50;;
54599;SDS011;40500;51.084;16.958;2023-04-25T04:40:12;3.00;;;2.80;;
54599;SDS011;40500;51.084;16.958;2023-04-25T04:42:54;4.20;;;3.00;;
54599;SDS011;40500;51.084;16.958;2023-04-25T04:45:43;4.70;;;3.70;;
54599;SDS011;40500;51.084;16.958;2023-04-25T04:48:32;4.80;;;3.50;;
54599;SDS011;40500;51.084;16.958;2023-04-25T04:51:20;3.50;;;2.90;;
54599;SDS011;40500;51.084;16.958;2023-04-25T04:54:10;4.60;;;3.60;;
54599;SDS011;40500;51.084;16.958;2023-04-25T04:56:50;5.40;;;3.40;;
54599;SDS011;40500;51.084;16.958;2023-04-25T04:59:36;3.60;;;2.90;;
54599;SDS011;40500;51.084;16.958;2023-04-25T05:02:13;4.00;;;3.20;;
54599;SDS011;40500;51.084;16.958;2023-04-25T05:05:19;4.30;;;3.70;;
54599;SDS011;40500;51.084;16.958;2023-04-25T05:08:11;5.30;;;3.70;;
54599;SDS011;40500;51.084;16.958;2023-04-25T05:10:53;5.60;;;3.00;;
54599;SDS011;40500;51.084;16.958;2023-04-25T05:13:34;3.10;;;2.80;;
54599;SDS011;40500;51.084;16.958;2023-04-25T05:16:23;5.30;;;3.90;;
54599;SDS011;40500;51.084;16.958;2023-04-25T05:19:13;6.00;;;3.40;;
54599;SDS011;40500;51.084;16.958;2023-04-25T05:21:51;3.50;;;3.00;;
54599;SDS011;40500;51.084;16.958;2023-04-25T05:24:31;3.20;;;2.70;;
54599;SDS011;40500;51.084;16.958;2023-04-25T05:27:20;5.00;;;3.40;;
54599;SDS011;40500;51.084;16.958;2023-04-25T05:30:12;3.10;;;2.80;;
54599;SDS011;40500;51.084;16.958;2023-04-25T05:35:29;5.00;;;3.10;;
54599;SDS011;40500;51.084;16.958;2023-04-25T05:38:01;3.50;;;3.10;;
54599;SDS011;40500;51.084;16.958;2023-04-25T05:40:54;3.80;;;3.20;;
54599;SDS011;40500;51.084;16.958;2023-04-25T05:43:41;5.50;;;3.00;;
54599;SDS011;40500;51.084;16.958;2023-04-25T05:46:23;4.30;;;3.50;;
54599;SDS011;40500;51.084;16.958;2023-04-25T05:49:18;6.60;;;3.40;;
54599;SDS011;40500;51.084;16.958;2023-04-25T05:52:19;5.00;;;3.70;;
54599;SDS011;40500;51.084;16.958;2023-04-25T05:55:03;5.80;;;3.30;;
54599;SDS011;40500;51.084;16.958;2023-04-25T05:57:34;4.40;;;3.00;;
54599;SDS011;40500;51.084;16.958;2023-04-25T06:00:07;3.20;;;2.60;;
54599;SDS011;40500;51.084;16.958;2023-04-25T06:02:42;4.00;;;3.10;;
54599;SDS011;40500;51.084;16.958;2023-04-25T06:05:14;4.20;;;3.00;;
54599;SDS011;40500;51.084;16.958;2023-04-25T06:07:46;3.90;;;3.00;;
54599;SDS011;40500;51.084;16.958;2023-04-25T06:10:16;3.30;;;2.80;;
54599;SDS011;40500;51.084;16.958;2023-04-25T06:12:47;3.30;;;2.70;;
54599;SDS011;40500;51.084;16.958;2023-04-25T06:15:19;4.30;;;3.30;;
54599;SDS011;40500;51.084;16.958;2023-04-25T06:20:24;7.10;;;3.30;;
54599;SDS011;40500;51.084;16.958;2023-04-25T06:22:57;4.00;;;2.70;;
54599;SDS011;40500;51.084;16.958;2023-04-25T06:25:44;3.60;;;2.90;;
54599;SDS011;40500;51.084;16.958;2023-04-25T06:28:15;3.90;;;2.60;;
54599;SDS011;40500;51.084;16.958;2023-04-25T06:30:45;3.30;;;2.70;;
54599;SDS011;40500;51.084;16.958;2023-04-25T06:33:18;3.50;;;2.90;;
54599;SDS011;40500;51.084;16.958;2023-04-25T06:35:50;4.70;;;2.80;;
54599;SDS011;40500;51.084;16.958;2023-04-25T06:38:23;6.00;;;2.90;;
54599;SDS011;40500;51.084;16.958;2023-04-25T06:40:56;3.00;;;2.40;;
54599;SDS011;40500;51.084;16.958;2023-04-25T06:43:28;4.20;;;2.50;;
54599;SDS011;40500;51.084;16.958;2023-04-25T06:46:03;3.10;;;2.80;;
54599;SDS011;40500;51.084;16.958;2023-04-25T06:48:39;4.20;;;2.70;;
54599;SDS011;40500;51.084;16.958;2023-04-25T06:51:09;3.10;;;2.10;;
54599;SDS011;40500;51.084;16.958;2023-04-25T06:53:41;3.60;;;2.40;;
54599;SDS011;40500;51.084;16.958;2023-04-25T06:56:19;4.00;;;2.70;;
54599;SDS011;40500;51.084;16.958;2023-04-25T06:58:56;5.30;;;2.30;;
54599;SDS011;40500;51.084;16.958;2023-04-25T07:01:31;4.70;;;2.30;;
54599;SDS011;40500;51.084;16.958;2023-04-25T07:04:04;5.10;;;2.60;;
54599;SDS011;40500;51.084;16.958;2023-04-25T07:06:38;4.60;;;2.10;;
54599;SDS011;40500;51.084;16.958;2023-04-25T07:09:11;3.00;;;2.40;;
54599;SDS011;40500;51.084;16.958;2023-04-25T07:11:43;3.70;;;2.00;;
54599;SDS011;40500;51.084;16.958;2023-04-25T07:14:13;3.60;;;1.80;;
54599;SDS011;40500;51.084;16.958;2023-04-25T07:16:44;3.20;;;2.00;;
54599;SDS011;40500;51.084;16.958;2023-04-25T07:19:14;5.10;;;1.90;;
54599;SDS011;40500;51.084;16.958;2023-04-25T07:21:45;4.30;;;2.10;;
54599;SDS011;40500;51.084;16.958;2023-04-25T07:24:16;2.50;;;2.20;;
54599;SDS011;40500;51.084;16.958;2023-04-25T07:26:47;3.90;;;1.90;;
54599;SDS011;40500;51.084;16.958;2023-04-25T07:29:25;2.70;;;1.60;;
54599;SDS011;40500;51.084;16.958;2023-04-25T07:31:59;3.20;;;1.70;;
54599;SDS011;40500;51.084;16.958;2023-04-25T07:34:29;4.30;;;1.60;;
54599;SDS011;40500;51.084;16.958;2023-04-25T07:37:00;1.60;;;1.40;;
54599;SDS011;40500;51.084;16.958;2023-04-25T07:39:36;4.70;;;2.30;;
54599;SDS011;40500;51.084;16.958;2023-04-25T07:42:06;3.70;;;2.20;;
54599;SDS011;40500;51.084;16.958;2023-04-25T07:44:40;3.50;;;1.90;;
54599;SDS011;40500;51.084;16.958;2023-04-25T07:47:11;4.80;;;2.40;;
54599;SDS011;40500;51.084;16.958;2023-04-25T07:49:42;4.90;;;2.00;;
54599;SDS011;40500;51.084;16.958;2023-04-25T07:52:12;4.90;;;3.00;;
54599;SDS011;40500;51.084;16.958;2023-04-25T07:54:48;6.10;;;2.00;;
54599;SDS011;40500;51.084;16.958;2023-04-25T07:57:23;3.00;;;2.50;;
54599;SDS011;40500;51.084;16.958;2023-04-25T07:59:55;5.20;;;3.40;;
54599;SDS011;40500;51.084;16.958;2023-04-25T08:02:26;4.30;;;3.00;;
54599;SDS011;40500;51.084;16.958;2023-04-25T08:04:57;7.30;;;3.50;;
54599;SDS011;40500;51.084;16.958;2023-04-25T08:07:28;7.10;;;3.50;;
54599;SDS011;40500;51.084;16.958;2023-04-25T08:10:01;5.30;;;3.50;;
54599;SDS011;40500;51.084;16.958;2023-04-25T08:12:33;4.80;;;3.70;;
54599;SDS011;40500;51.084;16.958;2023-04-25T08:15:05;7.10;;;4.20;;
54599;SDS011;40500;51.084;16.958;2023-04-25T08:17:39;4.90;;;3.60;;
54599;SDS011;40500;51.084;16.958;2023-04-25T08:20:12;7.30;;;4.10;;
54599;SDS011;40500;51.084;16.958;2023-04-25T08:22:43;4.80;;;4.20;;
54599;SDS011;40500;51.084;16.958;2023-04-25T08:25:26;6.30;;;3.80;;
54599;SDS011;40500;51.084;16.958;2023-04-25T08:27:57;4.80;;;3.80;;
54599;SDS011;40500;51.084;16.958;2023-04-25T08:30:30;5.30;;;3.70;;
54599;SDS011;40500;51.084;16.958;2023-04-25T08:33:01;5.80;;;4.00;;
54599;SDS011;40500;51.084;16.958;2023-04-25T08:35:57;4.40;;;3.90;;
54599;SDS011;40500;51.084;16.958;2023-04-25T08:38:28;5.80;;;4.70;;
54599;SDS011;40500;51.084;16.958;2023-04-25T08:41:00;7.00;;;4.10;;
54599;SDS011;40500;51.084;16.958;2023-04-25T08:43:32;6.40;;;4.50;;
54599;SDS011;40500;51.084;16.958;2023-04-25T08:46:05;4.30;;;3.50;;
54599;SDS011;40500;51.084;16.958;2023-04-25T08:48:45;6.50;;;3.90;;
54599;SDS011;40500;51.084;16.958;2023-04-25T08:51:20;4.60;;;3.90;;
54599;SDS011;40500;51.084;16.958;2023-04-25T08:53:53;6.60;;;3.40;;
54599;SDS011;40500;51.084;16.958;2023-04-25T08:56:36;4.90;;;3.80;;
54599;SDS011;40500;51.084;16.958;2023-04-25T08:59:07;6.00;;;4.10;;
54599;SDS011;40500;51.084;16.958;2023-04-25T09:01:39;4.90;;;3.50;;
54599;SDS011;40500;51.084;16.958;2023-04-25T09:04:09;4.70;;;3.40;;
54599;SDS011;40500;51.084;16.958;2023-04-25T09:06:42;4.90;;;3.70;;
54599;SDS011;40500;51.084;16.958;2023-04-25T09:09:13;6.60;;;4.20;;
54599;SDS011;40500;51.084;16.958;2023-04-25T09:11:44;6.40;;;3.90;;
54599;SDS011;40500;51.084;16.958;2023-04-25T09:14:15;4.70;;;3.60;;
54599;SDS011;40500;51.084;16.958;2023-04-25T09:17:07;4.40;;;3.30;;
54599;SDS011;40500;51.084;16.958;2023-04-25T09:19:37;3.70;;;3.10;;
54599;SDS011;40500;51.084;16.958;2023-04-25T09:22:15;5.70;;;2.60;;
54599;SDS011;40500;51.084;16.958;2023-04-25T09:24:49;4.10;;;3.10;;
54599;SDS011;40500;51.084;16.958;2023-04-25T09:27:22;3.10;;;2.70;;
54599;SDS011;40500;51.084;16.958;2023-04-25T09:30:11;5.00;;;3.00;;
54599;SDS011;40500;51.084;16.958;2023-04-25T09:32:55;7.10;;;2.70;;
54599;SDS011;40500;51.084;16.958;2023-04-25T09:35:36;4.70;;;3.10;;
54599;SDS011;40500;51.084;16.958;2023-04-25T09:38:09;4.10;;;3.50;;
54599;SDS011;40500;51.084;16.958;2023-04-25T09:41:00;4.80;;;2.90;;
54599;SDS011;40500;51.084;16.958;2023-04-25T09:43:38;3.70;;;3.20;;
54599;SDS011;40500;51.084;16.958;2023-04-25T09:46:09;5.20;;;3.20;;
54599;SDS011;40500;51.084;16.958;2023-04-25T09:48:49;6.50;;;3.20;;
54599;SDS011;40500;51.084;16.958;2023-04-25T09:51:32;10.30;;;3.70;;
54599;SDS011;40500;51.084;16.958;2023-04-25T09:54:05;3.90;;;2.90;;
54599;SDS011;40500;51.084;16.958;2023-04-25T09:56:46;5.80;;;3.40;;
54599;SDS011;40500;51.084;16.958;2023-04-25T09:59:21;3.80;;;2.90;;
54599;SDS011;40500;51.084;16.958;2023-04-25T10:01:52;5.90;;;3.60;;
54599;SDS011;40500;51.084;16.958;2023-04-25T10:04:28;4.60;;;3.80;;
54599;SDS011;40500;51.084;16.958;2023-04-25T10:07:26;6.00;;;3.50;;
54599;SDS011;40500;51.084;16.958;2023-04-25T10:10:01;4.30;;;3.40;;
54599;SDS011;40500;51.084;16.958;2023-04-25T10:12:33;4.10;;;3.40;;
54599;SDS011;40500;51.084;16.958;2023-04-25T10:15:05;3.30;;;3.00;;
54599;SDS011;40500;51.084;16.958;2023-04-25T10:17:37;4.50;;;3.20;;
54599;SDS011;40500;51.084;16.958;2023-04-25T10:20:09;5.40;;;4.00;;
54599;SDS011;40500;51.084;16.958;2023-04-25T10:22:41;4.80;;;3.20;;
54599;SDS011;40500;51.084;16.958;2023-04-25T10:25:13;4.00;;;3.50;;
54599;SDS011;40500;51.084;16.958;2023-04-25T10:27:44;4.40;;;3.20;;
54599;SDS011;40500;51.084;16.958;2023-04-25T10:30:15;3.80;;;3.00;;
54599;SDS011;40500;51.084;16.958;2023-04-25T10:32:46;2.60;;;2.20;;
54599;SDS011;40500;51.084;16.958;2023-04-25T10:35:19;5.20;;;2.20;;
54599;SDS011;40500;51.084;16.958;2023-04-25T10:40:28;3.30;;;2.00;;
54599;SDS011;40500;51.084;16.958;2023-04-25T10:46:00;2.70;;;1.80;;
54599;SDS011;40500;51.084;16.958;2023-04-25T10:48:31;5.20;;;2.20;;
54599;SDS011;40500;51.084;16.958;2023-04-25T10:51:08;3.50;;;2.40;;
54599;SDS011;40500;51.084;16.958;2023-04-25T10:53:39;4.70;;;2.80;;
54599;SDS011;40500;51.084;16.958;2023-04-25T10:56:12;2.70;;;2.30;;
54599;SDS011;40500;51.084;16.958;2023-04-25T10:58:47;2.50;;;2.00;;
54599;SDS011;40500;51.084;16.958;2023-04-25T11:01:21;4.50;;;1.70;;
54599;SDS011;40500;51.084;16.958;2023-04-25T11:03:57;2.30;;;2.00;;
54599;SDS011;40500;51.084;16.958;2023-04-25T11:06:29;1.80;;;1.50;;
54599;SDS011;40500;51.084;16.958;2023-04-25T11:09:12;2.10;;;1.40;;
54599;SDS011;40500;51.084;16.958;2023-04-25T11:11:43;2.00;;;1.60;;
54599;SDS011;40500;51.084;16.958;2023-04-25T11:14:24;1.90;;;1.40;;
54599;SDS011;40500;51.084;16.958;2023-04-25T11:16:54;3.50;;;1.30;;
54599;SDS011;40500;51.084;16.958;2023-04-25T11:19:27;2.90;;;1.60;;
54599;SDS011;40500;51.084;16.958;2023-04-25T11:21:59;2.10;;;1.30;;
54599;SDS011;40500;51.084;16.958;2023-04-25T11:24:31;3.00;;;1.50;;
54599;SDS011;40500;51.084;16.958;2023-04-25T11:27:03;3.00;;;1.10;;
54599;SDS011;40500;51.084;16.958;2023-04-25T11:29:34;2.90;;;1.20;;
54599;SDS011;40500;51.084;16.958;2023-04-25T11:32:05;1.50;;;1.00;;
54599;SDS011;40500;51.084;16.958;2023-04-25T11:34:36;1.50;;;1.30;;
54599;SDS011;40500;51.084;16.958;2023-04-25T11:37:06;1.80;;;1.20;;
54599;SDS011;40500;51.084;16.958;2023-04-25T11:39:36;3.00;;;1.30;;
54599;SDS011;40500;51.084;16.958;2023-04-25T11:42:11;2.90;;;1.20;;
54599;SDS011;40500;51.084;16.958;2023-04-25T11:44:41;1.70;;;0.90;;
54599;SDS011;40500;51.084;16.958;2023-04-25T11:47:12;2.60;;;1.20;;
54599;SDS011;40500;51.084;16.958;2023-04-25T11:49:42;1.70;;;1.20;;
54599;SDS011;40500;51.084;16.958;2023-04-25T11:52:13;2.10;;;1.20;;
54599;SDS011;40500;51.084;16.958;2023-04-25T11:54:43;1.30;;;1.00;;
54599;SDS011;40500;51.084;16.958;2023-04-25T11:57:14;1.30;;;0.90;;
54599;SDS011;40500;51.084;16.958;2023-04-25T11:59:47;1.20;;;1.00;;
54599;SDS011;40500;51.084;16.958;2023-04-25T12:02:25;2.40;;;1.20;;
54599;SDS011;40500;51.084;16.958;2023-04-25T12:05:00;1.60;;;1.00;;
54599;SDS011;40500;51.084;16.958;2023-04-25T12:07:50;1.80;;;1.30;;
54599;SDS011;40500;51.084;16.958;2023-04-25T12:10:21;1.70;;;1.10;;
54599;SDS011;40500;51.084;16.958;2023-04-25T12:12:53;1.00;;;1.00;;
54599;SDS011;40500;51.084;16.958;2023-04-25T12:15:24;2.90;;;0.90;;
54599;SDS011;40500;51.084;16.958;2023-04-25T12:17:55;3.40;;;0.90;;
54599;SDS011;40500;51.084;16.958;2023-04-25T12:20:26;3.30;;;1.20;;
54599;SDS011;40500;51.084;16.958;2023-04-25T12:22:56;0.70;;;0.70;;
54599;SDS011;40500;51.084;16.958;2023-04-25T12:25:38;2.90;;;1.20;;
54599;SDS011;40500;51.084;16.958;2023-04-25T12:28:13;3.00;;;1.00;;
54599;SDS011;40500;51.084;16.958;2023-04-25T12:30:53;2.40;;;1.10;;
54599;SDS011;40500;51.084;16.958;2023-04-25T12:33:26;1.60;;;1.00;;
54599;SDS011;40500;51.084;16.958;2023-04-25T12:35:58;1.70;;;1.00;;
54599;SDS011;40500;51.084;16.958;2023-04-25T12:38:35;2.60;;;0.90;;
54599;SDS011;40500;51.084;16.958;2023-04-25T12:41:06;1.80;;;0.70;;
54599;SDS011;40500;51.084;16.958;2023-04-25T12:43:37;1.10;;;0.90;;
54599;SDS011;40500;51.084;16.958;2023-04-25T12:46:07;1.10;;;1.00;;
54599;SDS011;40500;51.084;16.958;2023-04-25T12:48:38;1.50;;;1.10;;
54599;SDS011;40500;51.084;16.958;2023-04-25T12:51:08;1.80;;;0.80;;
54599;SDS011;40500;51.084;16.958;2023-04-25T12:53:38;2.00;;;0.90;;
54599;SDS011;40500;51.084;16.958;2023-04-25T12:56:09;0.80;;;0.70;;
54599;SDS011;40500;51.084;16.958;2023-04-25T12:58:40;1.70;;;1.00;;
54599;SDS011;40500;51.084;16.958;2023-04-25T13:01:11;1.50;;;0.80;;
54599;SDS011;40500;51.084;16.958;2023-04-25T13:03:42;3.00;;;0.90;;
54599;SDS011;40500;51.084;16.958;2023-04-25T13:06:12;1.10;;;0.90;;
54599;SDS011;40500;51.084;16.958;2023-04-25T13:08:43;1.40;;;0.90;;
54599;SDS011;40500;51.084;16.958;2023-04-25T13:11:13;0.70;;;0.70;;
54599;SDS011;40500;51.084;16.958;2023-04-25T13:13:44;1.00;;;1.00;;
54599;SDS011;40500;51.084;16.958;2023-04-25T13:16:15;2.00;;;0.90;;
54599;SDS011;40500;51.084;16.958;2023-04-25T13:18:48;1.40;;;1.20;;
54599;SDS011;40500;51.084;16.958;2023-04-25T13:21:18;3.00;;;0.80;;
54599;SDS011;40500;51.084;16.958;2023-04-25T13:23:49;0.90;;;0.70;;
54599;SDS011;40500;51.084;16.958;2023-04-25T13:26:20;1.70;;;1.00;;
54599;SDS011;40500;51.084;16.958;2023-04-25T13:28:50;1.30;;;0.70;;
54599;SDS011;40500;51.084;16.958;2023-04-25T13:31:21;1.80;;;1.10;;
54599;SDS011;40500;51.084;16.958;2023-04-25T13:33:52;1.80;;;0.80;;
54599;SDS011;40500;51.084;16.958;2023-04-25T13:36:22;1.60;;;0.70;;
54599;SDS011;40500;51.084;16.958;2023-04-25T13:38:53;1.70;;;0.80;;
54599;SDS011;40500;51.084;16.958;2023-04-25T13:41:23;0.90;;;0.90;;
54599;SDS011;40500;51.084;16.958;2023-04-25T13:43:54;1.70;;;1.00;;
54599;SDS011;40500;51.084;16.958;2023-04-25T13:46:24;0.80;;;0.80;;
54599;SDS011;40500;51.084;16.958;2023-04-25T13:49:12;1.60;;;1.00;;
54599;SDS011;40500;51.084;16.958;2023-04-25T13:51:43;1.70;;;1.20;;
54599;SDS011;40500;51.084;16.958;2023-04-25T13:54:13;1.90;;;1.00;;
54599;SDS011;40500;51.084;16.958;2023-04-25T13:56:44;1.20;;;0.90;;
54599;SDS011;40500;51.084;16.958;2023-04-25T13:59:14;2.00;;;1.20;;
54599;SDS011;40500;51.084;16.958;2023-04-25T14:01:44;1.10;;;0.90;;
54599;SDS011;40500;51.084;16.958;2023-04-25T14:04:15;1.90;;;0.90;;
54599;SDS011;40500;51.084;16.958;2023-04-25T14:06:45;2.00;;;0.80;;
54599;SDS011;40500;51.084;16.958;2023-04-25T14:09:16;2.20;;;0.80;;
54599;SDS011;40500;51.084;16.958;2023-04-25T14:11:48;2.70;;;1.20;;
54599;SDS011;40500;51.084;16.958;2023-04-25T14:14:18;1.50;;;1.10;;
54599;SDS011;40500;51.084;16.958;2023-04-25T14:16:49;1.10;;;1.00;;
54599;SDS011;40500;51.084;16.958;2023-04-25T14:19:21;1.30;;;1.00;;
54599;SDS011;40500;51.084;16.958;2023-04-25T14:21:52;3.50;;;1.20;;
54599;SDS011;40500;51.084;16.958;2023-04-25T14:24:22;1.70;;;1.30;;
54599;SDS011;40500;51.084;16.958;2023-04-25T14:26:53;2.10;;;1.00;;
54599;SDS011;40500;51.084;16.958;2023-04-25T14:29:24;1.20;;;1.00;;
54599;SDS011;40500;51.084;16.958;2023-04-25T14:31:54;2.50;;;1.20;;
54599;SDS011;40500;51.084;16.958;2023-04-25T14:34:26;1.20;;;0.90;;
54599;SDS011;40500;51.084;16.958;2023-04-25T14:36:56;2.50;;;1.00;;
54599;SDS011;40500;51.084;16.958;2023-04-25T14:39:27;5.00;;;1.20;;
54599;SDS011;40500;51.084;16.958;2023-04-25T14:41:57;1.50;;;1.10;;
54599;SDS011;40500;51.084;16.958;2023-04-25T14:44:29;1.40;;;1.10;;
54599;SDS011;40500;51.084;16.958;2023-04-25T14:46:59;1.90;;;0.90;;
54599;SDS011;40500;51.084;16.958;2023-04-25T14:49:31;1.70;;;1.00;;
54599;SDS011;40500;51.084;16.958;2023-04-25T14:52:01;2.00;;;1.00;;
54599;SDS011;40500;51.084;16.958;2023-04-25T14:54:32;1.50;;;1.10;;
54599;SDS011;40500;51.084;16.958;2023-04-25T14:57:02;1.80;;;1.10;;
54599;SDS011;40500;51.084;16.958;2023-04-25T14:59:33;3.60;;;1.10;;
54599;SDS011;40500;51.084;16.958;2023-04-25T15:02:03;1.00;;;0.90;;
54599;SDS011;40500;51.084;16.958;2023-04-25T15:04:34;1.40;;;1.10;;
54599;SDS011;40500;51.084;16.958;2023-04-25T15:07:05;2.80;;;1.20;;
54599;SDS011;40500;51.084;16.958;2023-04-25T15:09:36;2.50;;;1.40;;
54599;SDS011;40500;51.084;16.958;2023-04-25T15:12:06;2.30;;;1.20;;
54599;SDS011;40500;51.084;16.958;2023-04-25T15:14:38;1.70;;;1.20;;
54599;SDS011;40500;51.084;16.958;2023-04-25T15:17:08;3.10;;;1.30;;
54599;SDS011;40500;51.084;16.958;2023-04-25T15:19:41;6.90;;;1.40;;
54599;SDS011;40500;51.084;16.958;2023-04-25T15:22:11;3.00;;;1.50;;
54599;SDS011;40500;51.084;16.958;2023-04-25T15:24:42;3.70;;;1.80;;
54599;SDS011;40500;51.084;16.958;2023-04-25T15:27:12;2.40;;;1.30;;